sensor_id;sensor_type;location;lat;lon;timestamp;pressure;altitude;pressure_sealevel;temperature;humidity
64354;BME280;50681;53.334;-6.536;2023-02-02T00:07:41;101942.09;;;7.49;100.00
64354;BME280;50681;53.334;-6.536;2023-02-02T00:12:53;101920.63;;;7.38;100.00
64354;BME280;50681;53.334;-6.536;2023-02-02T00:15:25;101934.16;;;7.55;100.00
64354;BME280;50681;53.334;-6.536;2023-02-02T00:17:54;101913.59;;;7.37;100.00
64354;BME280;50681;53.334;-6.536;2023-02-02T00:20:34;101911.16;;;7.35;100.00
64354;BME280;50681;53.334;-6.536;2023-02-02T00:23:28;101945.50;;;7.57;100.00
64354;BME280;50681;53.334;-6.536;2023-02-02T00:26:02;101938.00;;;7.59;100.00
64354;BME280;50681;53.334;-6.536;2023-02-02T00:28:27;101936.38;;;7.58;100.00
64354;BME280;50681;53.334;-6.536;2023-02-02T00:30:55;101927.63;;;7.50;100.00
64354;BME280;50681;53.334;-6.536;2023-02-02T00:36:07;101928.31;;;7.58;100.00
64354;BME280;50681;53.334;-6.536;2023-02-02T00:38:43;101941.28;;;7.61;100.00
64354;BME280;50681;53.334;-6.536;2023-02-02T00:41:37;101884.16;;;7.30;100.00
64354;BME280;50681;53.334;-6.536;2023-02-02T00:44:23;101938.59;;;7.61;100.00
64354;BME280;50681;53.334;-6.536;2023-02-02T00:47:10;101900.03;;;7.43;100.00
64354;BME280;50681;53.334;-6.536;2023-02-02T00:49:42;101937.06;;;7.65;100.00
64354;BME280;50681;53.334;-6.536;2023-02-02T00:52:17;101914.41;;;7.61;100.00
64354;BME280;50681;53.334;-6.536;2023-02-02T00:54:45;101918.63;;;7.69;100.00
64354;BME280;50681;53.334;-6.536;2023-02-02T00:57:21;101873.88;;;7.39;100.00
64354;BME280;50681;53.334;-6.536;2023-02-02T00:59:47;101900.84;;;7.56;100.00
64354;BME280;50681;53.334;-6.536;2023-02-02T01:02:13;101900.38;;;7.59;100.00
64354;BME280;50681;53.334;-6.536;2023-02-02T01:04:38;101895.47;;;7.56;100.00
64354;BME280;50681;53.334;-6.536;2023-02-02T01:07:07;101895.25;;;7.57;100.00
64354;BME280;50681;53.334;-6.536;2023-02-02T01:09:32;101906.59;;;7.59;100.00
64354;BME280;50681;53.334;-6.536;2023-02-02T01:11:59;101908.56;;;7.64;100.00
64354;BME280;50681;53.334;-6.536;2023-02-02T01:14:25;101911.81;;;7.66;100.00
64354;BME280;50681;53.334;-6.536;2023-02-02T01:16:51;101901.06;;;7.66;100.00
64354;BME280;50681;53.334;-6.536;2023-02-02T01:19:19;101904.81;;;7.65;100.00
64354;BME280;50681;53.334;-6.536;2023-02-02T01:21:45;101913.47;;;7.67;100.00
64354;BME280;50681;53.334;-6.536;2023-02-02T01:24:10;101924.09;;;7.74;100.00
64354;BME280;50681;53.334;-6.536;2023-02-02T01:26:38;101909.34;;;7.76;100.00
64354;BME280;50681;53.334;-6.536;2023-02-02T01:29:03;101897.34;;;7.67;100.00
64354;BME280;50681;53.334;-6.536;2023-02-02T01:31:32;101899.91;;;7.74;100.00
64354;BME280;50681;53.334;-6.536;2023-02-02T01:33:57;101897.91;;;7.81;100.00
64354;BME280;50681;53.334;-6.536;2023-02-02T01:36:26;101895.44;;;7.79;100.00
64354;BME280;50681;53.334;-6.536;2023-02-02T01:38:55;101896.63;;;7.72;100.00
64354;BME280;50681;53.334;-6.536;2023-02-02T01:41:23;101867.19;;;7.65;100.00
64354;BME280;50681;53.334;-6.536;2023-02-02T01:44:03;101890.06;;;7.79;100.00
64354;BME280;50681;53.334;-6.536;2023-02-02T01:46:41;101903.97;;;7.76;100.00
64354;BME280;50681;53.334;-6.536;2023-02-02T01:49:17;101890.53;;;7.76;100.00
64354;BME280;50681;53.334;-6.536;2023-02-02T01:54:39;101877.19;;;7.82;100.00
64354;BME280;50681;53.334;-6.536;2023-02-02T01:57:11;101876.72;;;7.85;100.00
64354;BME280;50681;53.334;-6.536;2023-02-02T01:59:40;101829.34;;;7.55;100.00
64354;BME280;50681;53.334;-6.536;2023-02-02T02:02:47;101854.31;;;7.67;100.00
64354;BME280;50681;53.334;-6.536;2023-02-02T02:06:10;101885.63;;;7.85;100.00
64354;BME280;50681;53.334;-6.536;2023-02-02T02:09:00;101851.06;;;7.65;100.00
64354;BME280;50681;53.334;-6.536;2023-02-02T02:11:57;101877.19;;;7.82;100.00
64354;BME280;50681;53.334;-6.536;2023-02-02T02:14:27;101880.72;;;7.82;100.00
64354;BME280;50681;53.334;-6.536;2023-02-02T02:23:17;101885.84;;;7.84;100.00
64354;BME280;50681;53.334;-6.536;2023-02-02T02:32:10;101865.53;;;7.76;100.00
64354;BME280;50681;53.334;-6.536;2023-02-02T02:34:59;101876.50;;;7.74;100.00
64354;BME280;50681;53.334;-6.536;2023-02-02T02:42:57;101860.84;;;7.71;100.00
64354;BME280;50681;53.334;-6.536;2023-02-02T02:45:26;101841.03;;;7.60;100.00
64354;BME280;50681;53.334;-6.536;2023-02-02T02:47:54;101848.13;;;7.67;100.00
64354;BME280;50681;53.334;-6.536;2023-02-02T02:50:20;101868.06;;;7.83;100.00
64354;BME280;50681;53.334;-6.536;2023-02-02T02:52:48;101860.25;;;7.81;100.00
64354;BME280;50681;53.334;-6.536;2023-02-02T02:55:18;101848.00;;;7.73;100.00
64354;BME280;50681;53.334;-6.536;2023-02-02T03:01:00;101863.75;;;7.82;100.00
64354;BME280;50681;53.334;-6.536;2023-02-02T03:03:45;101852.78;;;7.83;100.00
64354;BME280;50681;53.334;-6.536;2023-02-02T03:09:03;101847.72;;;7.87;100.00
64354;BME280;50681;53.334;-6.536;2023-02-02T03:11:37;101855.09;;;7.91;100.00
64354;BME280;50681;53.334;-6.536;2023-02-02T03:14:03;101855.09;;;7.91;100.00
64354;BME280;50681;53.334;-6.536;2023-02-02T03:16:40;101849.94;;;7.90;100.00
64354;BME280;50681;53.334;-6.536;2023-02-02T03:19:06;101846.19;;;7.91;100.00
64354;BME280;50681;53.334;-6.536;2023-02-02T03:21:33;101849.22;;;7.94;100.00
64354;BME280;50681;53.334;-6.536;2023-02-02T03:24:01;101853.31;;;7.97;100.00
64354;BME280;50681;53.334;-6.536;2023-02-02T03:26:28;101836.75;;;7.88;100.00
64354;BME280;50681;53.334;-6.536;2023-02-02T03:28:55;101835.91;;;7.88;100.00
64354;BME280;50681;53.334;-6.536;2023-02-02T03:31:22;101850.84;;;7.95;100.00
64354;BME280;50681;53.334;-6.536;2023-02-02T03:33:48;101853.78;;;7.94;100.00
64354;BME280;50681;53.334;-6.536;2023-02-02T03:36:16;101805.81;;;7.62;100.00
64354;BME280;50681;53.334;-6.536;2023-02-02T03:38:41;101834.91;;;7.77;100.00
64354;BME280;50681;53.334;-6.536;2023-02-02T03:41:07;101823.47;;;7.70;100.00
64354;BME280;50681;53.334;-6.536;2023-02-02T03:43:34;101840.97;;;7.84;100.00
64354;BME280;50681;53.334;-6.536;2023-02-02T03:46:03;101829.38;;;7.84;100.00
64354;BME280;50681;53.334;-6.536;2023-02-02T03:48:31;101841.38;;;7.93;100.00
64354;BME280;50681;53.334;-6.536;2023-02-02T03:51:08;101856.66;;;8.04;100.00
64354;BME280;50681;53.334;-6.536;2023-02-02T03:53:37;101827.13;;;7.92;100.00
64354;BME280;50681;53.334;-6.536;2023-02-02T03:56:12;101846.31;;;8.13;100.00
64354;BME280;50681;53.334;-6.536;2023-02-02T03:58:39;101829.28;;;8.07;100.00
64354;BME280;50681;53.334;-6.536;2023-02-02T04:01:09;101840.47;;;8.16;100.00
64354;BME280;50681;53.334;-6.536;2023-02-02T04:03:38;101844.66;;;8.24;100.00
64354;BME280;50681;53.334;-6.536;2023-02-02T04:06:04;101812.91;;;8.09;100.00
64354;BME280;50681;53.334;-6.536;2023-02-02T04:08:30;101823.16;;;8.12;100.00
64354;BME280;50681;53.334;-6.536;2023-02-02T04:10:56;101823.16;;;8.12;100.00
64354;BME280;50681;53.334;-6.536;2023-02-02T04:13:23;101841.22;;;8.29;100.00
64354;BME280;50681;53.334;-6.536;2023-02-02T04:15:55;101832.75;;;8.20;100.00
64354;BME280;50681;53.334;-6.536;2023-02-02T04:18:23;101827.59;;;8.18;100.00
64354;BME280;50681;53.334;-6.536;2023-02-02T04:20:48;101839.75;;;8.21;100.00
64354;BME280;50681;53.334;-6.536;2023-02-02T04:23:15;101850.94;;;8.30;100.00
64354;BME280;50681;53.334;-6.536;2023-02-02T04:25:50;101839.75;;;8.21;100.00
64354;BME280;50681;53.334;-6.536;2023-02-02T04:28:21;101851.19;;;8.28;100.00
64354;BME280;50681;53.334;-6.536;2023-02-02T04:30:49;101832.84;;;8.25;100.00
64354;BME280;50681;53.334;-6.536;2023-02-02T04:33:15;101810.47;;;8.07;100.00
64354;BME280;50681;53.334;-6.536;2023-02-02T04:35:43;101837.06;;;8.21;100.00
64354;BME280;50681;53.334;-6.536;2023-02-02T04:38:09;101839.84;;;8.26;100.00
64354;BME280;50681;53.334;-6.536;2023-02-02T04:40:41;101834.00;;;8.29;100.00
64354;BME280;50681;53.334;-6.536;2023-02-02T04:43:07;101829.00;;;8.21;100.00
64354;BME280;50681;53.334;-6.536;2023-02-02T04:45:34;101825.25;;;8.22;100.00
64354;BME280;50681;53.334;-6.536;2023-02-02T04:48:02;101828.03;;;8.27;100.00
64354;BME280;50681;53.334;-6.536;2023-02-02T04:50:29;101829.88;;;8.27;100.00
64354;BME280;50681;53.334;-6.536;2023-02-02T04:52:55;101833.16;;;8.29;100.00
64354;BME280;50681;53.334;-6.536;2023-02-02T04:55:20;101817.78;;;8.12;100.00
64354;BME280;50681;53.334;-6.536;2023-02-02T04:57:46;101833.16;;;8.29;100.00
64354;BME280;50681;53.334;-6.536;2023-02-02T05:00:12;101846.47;;;8.35;100.00
64354;BME280;50681;53.334;-6.536;2023-02-02T05:02:38;101847.44;;;8.29;100.00
64354;BME280;50681;53.334;-6.536;2023-02-02T05:05:05;101836.19;;;8.32;100.00
64354;BME280;50681;53.334;-6.536;2023-02-02T05:07:31;101833.31;;;8.22;100.00
64354;BME280;50681;53.334;-6.536;2023-02-02T05:09:56;101838.69;;;8.22;100.00
64354;BME280;50681;53.334;-6.536;2023-02-02T05:12:22;101843.91;;;8.29;100.00
64354;BME280;50681;53.334;-6.536;2023-02-02T05:14:47;101833.81;;;8.19;100.00
64354;BME280;50681;53.334;-6.536;2023-02-02T05:17:13;101840.34;;;8.23;100.00
64354;BME280;50681;53.334;-6.536;2023-02-02T05:19:40;101840.34;;;8.23;100.00
64354;BME280;50681;53.334;-6.536;2023-02-02T05:22:05;101837.78;;;8.16;100.00
64354;BME280;50681;53.334;-6.536;2023-02-02T05:24:31;101836.97;;;8.16;100.00
64354;BME280;50681;53.334;-6.536;2023-02-02T05:26:56;101844.19;;;8.27;100.00
64354;BME280;50681;53.334;-6.536;2023-02-02T05:29:25;101839.19;;;8.19;100.00
64354;BME280;50681;53.334;-6.536;2023-02-02T05:31:51;101847.44;;;8.29;100.00
64354;BME280;50681;53.334;-6.536;2023-02-02T05:34:19;101823.53;;;8.16;100.00
64354;BME280;50681;53.334;-6.536;2023-02-02T05:36:45;101843.69;;;8.30;100.00
64354;BME280;50681;53.334;-6.536;2023-02-02T05:39:11;101820.25;;;8.14;100.00
64354;BME280;50681;53.334;-6.536;2023-02-02T05:41:36;101835.53;;;8.25;100.00
64354;BME280;50681;53.334;-6.536;2023-02-02T05:44:02;101847.66;;;8.28;100.00
64354;BME280;50681;53.334;-6.536;2023-02-02T05:46:28;101855.41;;;8.24;100.00
64354;BME280;50681;53.334;-6.536;2023-02-02T05:48:54;101840.06;;;8.07;100.00
64354;BME280;50681;53.334;-6.536;2023-02-02T05:51:25;101829.03;;;8.09;100.00
64354;BME280;50681;53.334;-6.536;2023-02-02T05:53:52;101844.22;;;8.15;100.00
64354;BME280;50681;53.334;-6.536;2023-02-02T05:56:18;101857.34;;;8.12;100.00
64354;BME280;50681;53.334;-6.536;2023-02-02T05:58:44;101855.22;;;8.14;100.00
64354;BME280;50681;53.334;-6.536;2023-02-02T06:01:12;101835.84;;;8.00;100.00
64354;BME280;50681;53.334;-6.536;2023-02-02T06:03:38;101854.31;;;8.08;100.00
64354;BME280;50681;53.334;-6.536;2023-02-02T06:06:04;101859.47;;;8.09;100.00
64354;BME280;50681;53.334;-6.536;2023-02-02T06:08:29;101842.06;;;8.00;100.00
64354;BME280;50681;53.334;-6.536;2023-02-02T06:10:56;101836.09;;;7.98;100.00
64354;BME280;50681;53.334;-6.536;2023-02-02T06:13:21;101838.63;;;8.05;100.00
64354;BME280;50681;53.334;-6.536;2023-02-02T06:15:47;101849.75;;;8.08;100.00
64354;BME280;50681;53.334;-6.536;2023-02-02T06:18:12;101843.78;;;8.06;100.00
64354;BME280;50681;53.334;-6.536;2023-02-02T06:20:38;101852.53;;;8.14;100.00
64354;BME280;50681;53.334;-6.536;2023-02-02T06:23:04;101830.94;;;8.08;100.00
64354;BME280;50681;53.334;-6.536;2023-02-02T06:25:30;101841.69;;;8.08;100.00
64354;BME280;50681;53.334;-6.536;2023-02-02T06:27:56;101832.00;;;7.95;100.00
64354;BME280;50681;53.334;-6.536;2023-02-02T06:30:27;101839.59;;;7.99;100.00
64354;BME280;50681;53.334;-6.536;2023-02-02T06:32:53;101841.16;;;7.94;100.00
64354;BME280;50681;53.334;-6.536;2023-02-02T06:35:19;101838.84;;;7.86;100.00
64354;BME280;50681;53.334;-6.536;2023-02-02T06:37:44;101829.91;;;7.69;100.00
64354;BME280;50681;53.334;-6.536;2023-02-02T06:40:11;101842.50;;;7.68;100.00
64354;BME280;50681;53.334;-6.536;2023-02-02T06:42:38;101829.81;;;7.52;100.00
64354;BME280;50681;53.334;-6.536;2023-02-02T06:45:03;101840.66;;;7.57;100.00
64354;BME280;50681;53.334;-6.536;2023-02-02T06:47:31;101838.44;;;7.54;100.00
64354;BME280;50681;53.334;-6.536;2023-02-02T06:50:02;101853.50;;;7.67;100.00
64354;BME280;50681;53.334;-6.536;2023-02-02T06:52:28;101850.13;;;7.59;100.00
64354;BME280;50681;53.334;-6.536;2023-02-02T06:54:53;101827.22;;;7.57;100.00
64354;BME280;50681;53.334;-6.536;2023-02-02T06:57:19;101838.44;;;7.54;100.00
64354;BME280;50681;53.334;-6.536;2023-02-02T06:59:44;101857.25;;;7.65;100.00
64354;BME280;50681;53.334;-6.536;2023-02-02T07:02:11;101858.31;;;7.64;100.00
64354;BME280;50681;53.334;-6.536;2023-02-02T07:04:37;101848.03;;;7.61;100.00
64354;BME280;50681;53.334;-6.536;2023-02-02T07:07:03;101854.78;;;7.64;100.00
64354;BME280;50681;53.334;-6.536;2023-02-02T07:09:32;101855.03;;;7.62;100.00
64354;BME280;50681;53.334;-6.536;2023-02-02T07:11:58;101840.69;;;7.45;100.00
64354;BME280;50681;53.334;-6.536;2023-02-02T07:14:23;101846.41;;;7.48;100.00
64354;BME280;50681;53.334;-6.536;2023-02-02T07:16:49;101847.81;;;7.51;100.00
64354;BME280;50681;53.334;-6.536;2023-02-02T07:19:15;101858.78;;;7.49;100.00
64354;BME280;50681;53.334;-6.536;2023-02-02T07:21:40;101825.84;;;7.42;100.00
64354;BME280;50681;53.334;-6.536;2023-02-02T07:24:07;101839.50;;;7.53;100.00
64354;BME280;50681;53.334;-6.536;2023-02-02T07:26:34;101835.06;;;7.46;100.00
64354;BME280;50681;53.334;-6.536;2023-02-02T07:29:00;101849.53;;;7.69;100.00
64354;BME280;50681;53.334;-6.536;2023-02-02T07:31:26;101853.25;;;7.68;100.00
64354;BME280;50681;53.334;-6.536;2023-02-02T07:33:52;101843.56;;;7.67;100.00
64354;BME280;50681;53.334;-6.536;2023-02-02T07:36:21;101855.97;;;7.68;100.00
64354;BME280;50681;53.334;-6.536;2023-02-02T07:38:50;101864.13;;;7.73;100.00
64354;BME280;50681;53.334;-6.536;2023-02-02T07:41:15;101864.75;;;7.63;100.00
64354;BME280;50681;53.334;-6.536;2023-02-02T07:43:41;101869.97;;;7.70;100.00
64354;BME280;50681;53.334;-6.536;2023-02-02T07:46:08;101875.47;;;7.75;100.00
64354;BME280;50681;53.334;-6.536;2023-02-02T07:48:35;101883.53;;;7.75;100.00
64354;BME280;50681;53.334;-6.536;2023-02-02T07:51:03;101873.25;;;7.72;100.00
64354;BME280;50681;53.334;-6.536;2023-02-02T07:53:29;101871.59;;;7.71;100.00
64354;BME280;50681;53.334;-6.536;2023-02-02T07:56:15;101853.06;;;7.58;100.00
64354;BME280;50681;53.334;-6.536;2023-02-02T07:58:42;101877.00;;;7.71;100.00
64354;BME280;50681;53.334;-6.536;2023-02-02T08:01:08;101867.41;;;7.75;100.00
64354;BME280;50681;53.334;-6.536;2023-02-02T08:03:35;101875.94;;;7.72;100.00
64354;BME280;50681;53.334;-6.536;2023-02-02T08:06:08;101855.75;;;7.58;100.00
64354;BME280;50681;53.334;-6.536;2023-02-02T08:08:34;101856.69;;;7.63;100.00
64354;BME280;50681;53.334;-6.536;2023-02-02T08:10:59;101859.22;;;7.70;100.00
64354;BME280;50681;53.334;-6.536;2023-02-02T08:13:26;101844.63;;;7.66;100.00
64354;BME280;50681;53.334;-6.536;2023-02-02T08:15:51;101868.56;;;7.79;100.00
64354;BME280;50681;53.334;-6.536;2023-02-02T08:18:17;101867.53;;;7.69;100.00
64354;BME280;50681;53.334;-6.536;2023-02-02T08:20:52;101834.13;;;7.53;100.00
64354;BME280;50681;53.334;-6.536;2023-02-02T08:23:18;101873.72;;;7.69;100.00
64354;BME280;50681;53.334;-6.536;2023-02-02T08:25:48;101851.06;;;7.65;100.00
64354;BME280;50681;53.334;-6.536;2023-02-02T08:28:15;101861.69;;;7.72;100.00
64354;BME280;50681;53.334;-6.536;2023-02-02T08:30:40;101840.78;;;7.62;100.00
64354;BME280;50681;53.334;-6.536;2023-02-02T08:33:06;101860.97;;;7.76;100.00
64354;BME280;50681;53.334;-6.536;2023-02-02T08:35:33;101862.69;;;7.83;100.00
64354;BME280;50681;53.334;-6.536;2023-02-02T08:37:58;101871.59;;;7.83;100.00
64354;BME280;50681;53.334;-6.536;2023-02-02T08:40:27;101850.34;;;7.70;100.00
64354;BME280;50681;53.334;-6.536;2023-02-02T08:42:53;101872.06;;;7.80;100.00
64354;BME280;50681;53.334;-6.536;2023-02-02T08:45:19;101872.88;;;7.92;100.00
64354;BME280;50681;53.334;-6.536;2023-02-02T08:47:45;101841.94;;;7.66;100.00
64354;BME280;50681;53.334;-6.536;2023-02-02T08:50:11;101866.81;;;7.85;100.00
64354;BME280;50681;53.334;-6.536;2023-02-02T08:52:36;101853.47;;;7.78;100.00
64354;BME280;50681;53.334;-6.536;2023-02-02T08:55:02;101869.22;;;7.87;100.00
64354;BME280;50681;53.334;-6.536;2023-02-02T08:57:27;101857.56;;;7.81;100.00
64354;BME280;50681;53.334;-6.536;2023-02-02T08:59:54;101847.41;;;7.83;100.00
64354;BME280;50681;53.334;-6.536;2023-02-02T09:02:20;101863.47;;;7.95;100.00
64354;BME280;50681;53.334;-6.536;2023-02-02T09:04:45;101860.47;;;7.91;100.00
64354;BME280;50681;53.334;-6.536;2023-02-02T09:07:15;101879.81;;;8.05;100.00
64354;BME280;50681;53.334;-6.536;2023-02-02T09:09:41;101853.47;;;7.90;100.00
64354;BME280;50681;53.334;-6.536;2023-02-02T09:12:06;101877.94;;;8.06;100.00
64354;BME280;50681;53.334;-6.536;2023-02-02T09:14:32;101876.31;;;8.05;100.00
64354;BME280;50681;53.334;-6.536;2023-02-02T09:16:57;101858.69;;;7.97;100.00
64354;BME280;50681;53.334;-6.536;2023-02-02T09:19:23;101865.06;;;8.08;100.00
64354;BME280;50681;53.334;-6.536;2023-02-02T09:21:49;101877.56;;;8.14;100.00
64354;BME280;50681;53.334;-6.536;2023-02-02T09:24:15;101879.06;;;8.22;100.00
64354;BME280;50681;53.334;-6.536;2023-02-02T09:26:42;101876.00;;;8.30;100.00
64354;BME280;50681;53.334;-6.536;2023-02-02T09:29:11;101879.84;;;8.34;100.00
64354;BME280;50681;53.334;-6.536;2023-02-02T09:31:39;101874.34;;;8.29;100.00
64354;BME280;50681;53.334;-6.536;2023-02-02T09:34:09;101872.56;;;8.35;100.00
64354;BME280;50681;53.334;-6.536;2023-02-02T09:36:36;101887.25;;;8.44;100.00
64354;BME280;50681;53.334;-6.536;2023-02-02T09:39:01;101898.03;;;8.44;100.00
64354;BME280;50681;53.334;-6.536;2023-02-02T09:44:02;101888.91;;;8.45;100.00
64354;BME280;50681;53.334;-6.536;2023-02-02T09:46:36;101901.53;;;8.45;100.00
64354;BME280;50681;53.334;-6.536;2023-02-02T09:49:08;101892.75;;;8.49;100.00
64354;BME280;50681;53.334;-6.536;2023-02-02T09:51:40;101876.09;;;8.35;100.00
64354;BME280;50681;53.334;-6.536;2023-02-02T09:54:20;101879.75;;;8.46;100.00
64354;BME280;50681;53.334;-6.536;2023-02-02T09:56:48;101876.63;;;8.49;100.00
64354;BME280;50681;53.334;-6.536;2023-02-02T09:59:22;101883.59;;;8.62;100.00
64354;BME280;50681;53.334;-6.536;2023-02-02T10:01:52;101865.72;;;8.44;100.00
64354;BME280;50681;53.334;-6.536;2023-02-02T10:04:35;101888.88;;;8.57;100.00
64354;BME280;50681;53.334;-6.536;2023-02-02T10:07:11;101894.44;;;8.67;100.00
64354;BME280;50681;53.334;-6.536;2023-02-02T10:10:10;101865.97;;;8.43;100.00
64354;BME280;50681;53.334;-6.536;2023-02-02T10:25:00;101897.19;;;8.56;100.00
64354;BME280;50681;53.334;-6.536;2023-02-02T10:27:36;101929.63;;;8.78;100.00
64354;BME280;50681;53.334;-6.536;2023-02-02T10:30:30;101931.75;;;8.76;100.00
64354;BME280;50681;53.334;-6.536;2023-02-02T10:33:04;101936.56;;;8.74;100.00
64354;BME280;50681;53.334;-6.536;2023-02-02T10:35:38;101946.00;;;8.76;100.00
64354;BME280;50681;53.334;-6.536;2023-02-02T10:38:36;101951.25;;;8.83;100.00
64354;BME280;50681;53.334;-6.536;2023-02-02T10:41:52;101953.22;;;8.88;100.00
64354;BME280;50681;53.334;-6.536;2023-02-02T10:44:08;101954.19;;;8.81;100.00
64354;BME280;50681;53.334;-6.536;2023-02-02T10:46:44;101946.28;;;8.92;100.00
64354;BME280;50681;53.334;-6.536;2023-02-02T10:49:31;101941.31;;;9.01;100.00
64354;BME280;50681;53.334;-6.536;2023-02-02T10:57:09;101947.50;;;8.84;100.00
64354;BME280;50681;53.334;-6.536;2023-02-02T10:59:48;101937.47;;;8.96;100.00
64354;BME280;50681;53.334;-6.536;2023-02-02T11:02:18;101929.88;;;8.93;100.00
64354;BME280;50681;53.334;-6.536;2023-02-02T11:04:53;101916.66;;;8.92;100.00
64354;BME280;50681;53.334;-6.536;2023-02-02T11:07:59;101939.28;;;9.08;100.00
64354;BME280;50681;53.334;-6.536;2023-02-02T11:10:26;101930.78;;;9.16;100.00
64354;BME280;50681;53.334;-6.536;2023-02-02T11:13:03;101907.53;;;9.10;100.00
64354;BME280;50681;53.334;-6.536;2023-02-02T11:15:49;101924.09;;;9.36;100.00
64354;BME280;50681;53.334;-6.536;2023-02-02T11:18:30;101914.84;;;9.32;100.00
64354;BME280;50681;53.334;-6.536;2023-02-02T11:21:25;101916.72;;;9.48;100.00
64354;BME280;50681;53.334;-6.536;2023-02-02T11:24:02;101910.75;;;9.46;100.00
64354;BME280;50681;53.334;-6.536;2023-02-02T11:27:13;101898.97;;;9.52;100.00
64354;BME280;50681;53.334;-6.536;2023-02-02T11:29:58;101911.31;;;9.48;100.00
64354;BME280;50681;53.334;-6.536;2023-02-02T11:32:32;101893.88;;;9.56;100.00
64354;BME280;50681;53.334;-6.536;2023-02-02T11:35:32;101905.72;;;9.72;100.00
64354;BME280;50681;53.334;-6.536;2023-02-02T11:38:28;101893.84;;;9.73;100.00
64354;BME280;50681;53.334;-6.536;2023-02-02T11:41:06;101882.88;;;9.80;100.00
64354;BME280;50681;53.334;-6.536;2023-02-02T11:43:51;101875.41;;;9.65;100.00
64354;BME280;50681;53.334;-6.536;2023-02-02T11:46:40;101899.69;;;9.87;100.00
64354;BME280;50681;53.334;-6.536;2023-02-02T11:49:17;101904.66;;;9.73;100.00
64354;BME280;50681;53.334;-6.536;2023-02-02T11:52:03;101892.47;;;9.70;100.00
64354;BME280;50681;53.334;-6.536;2023-02-02T12:01:42;101889.63;;;9.60;100.00
64354;BME280;50681;53.334;-6.536;2023-02-02T12:04:30;101887.75;;;9.61;100.00
64354;BME280;50681;53.334;-6.536;2023-02-02T12:07:00;101904.66;;;9.73;100.00
64354;BME280;50681;53.334;-6.536;2023-02-02T12:09:27;101895.78;;;9.78;100.00
64354;BME280;50681;53.334;-6.536;2023-02-02T12:12:58;101884.19;;;9.77;100.00
64354;BME280;50681;53.334;-6.536;2023-02-02T12:18:20;101880.53;;;9.66;100.00
64354;BME280;50681;53.334;-6.536;2023-02-02T12:23:53;101878.47;;;9.51;100.00
64354;BME280;50681;53.334;-6.536;2023-02-02T12:26:29;101890.75;;;9.64;100.00
64354;BME280;50681;53.334;-6.536;2023-02-02T12:29:24;101893.84;;;9.73;100.00
64354;BME280;50681;53.334;-6.536;2023-02-02T12:41:00;101864.94;;;9.68;100.00
64354;BME280;50681;53.334;-6.536;2023-02-02T12:43:42;101840.72;;;9.51;100.00
64354;BME280;50681;53.334;-6.536;2023-02-02T12:52:14;101840.03;;;9.61;100.00
64354;BME280;50681;53.334;-6.536;2023-02-02T13:01:55;101839.72;;;9.80;100.00
64354;BME280;50681;53.334;-6.536;2023-02-02T13:04:55;101818.00;;;9.69;100.00
64354;BME280;50681;53.334;-6.536;2023-02-02T13:07:33;101836.78;;;9.81;100.00
64354;BME280;50681;53.334;-6.536;2023-02-02T13:12:54;101836.78;;;9.81;100.00
64354;BME280;50681;53.334;-6.536;2023-02-02T13:15:26;101839.03;;;9.90;100.00
64354;BME280;50681;53.334;-6.536;2023-02-02T13:18:03;101826.72;;;9.99;100.00
64354;BME280;50681;53.334;-6.536;2023-02-02T13:20:48;101825.84;;;10.21;100.00
64354;BME280;50681;53.334;-6.536;2023-02-02T13:23:39;101824.84;;;10.27;100.00
64354;BME280;50681;53.334;-6.536;2023-02-02T13:26:31;101811.13;;;10.34;100.00
64354;BME280;50681;53.334;-6.536;2023-02-02T13:32:33;101816.50;;;10.34;100.00
64354;BME280;50681;53.334;-6.536;2023-02-02T13:38:40;101810.31;;;10.33;100.00
64354;BME280;50681;53.334;-6.536;2023-02-02T13:41:17;101796.78;;;10.28;100.00
64354;BME280;50681;53.334;-6.536;2023-02-02T13:44:00;101801.56;;;10.21;100.00
64354;BME280;50681;53.334;-6.536;2023-02-02T13:46:53;101800.44;;;10.17;100.00
64354;BME280;50681;53.334;-6.536;2023-02-02T13:49:28;101812.78;;;10.07;100.00
64354;BME280;50681;53.334;-6.536;2023-02-02T13:52:39;101815.53;;;10.12;100.00
64354;BME280;50681;53.334;-6.536;2023-02-02T14:00:45;101803.75;;;9.96;100.00
64354;BME280;50681;53.334;-6.536;2023-02-02T14:06:24;101820.25;;;10.00;100.00
64354;BME280;50681;53.334;-6.536;2023-02-02T14:09:16;101820.31;;;10.05;100.00
64354;BME280;50681;53.334;-6.536;2023-02-02T14:12:08;101796.97;;;9.94;100.00
64354;BME280;50681;53.334;-6.536;2023-02-02T14:14:37;101812.72;;;10.02;100.00
64354;BME280;50681;53.334;-6.536;2023-02-02T14:20:38;101806.16;;;9.93;100.00
64354;BME280;50681;53.334;-6.536;2023-02-02T14:26:07;101811.28;;;9.94;100.00
64354;BME280;50681;53.334;-6.536;2023-02-02T14:28:45;101800.69;;;9.88;100.00
64354;BME280;50681;53.334;-6.536;2023-02-02T14:31:51;101791.94;;;9.75;100.00
64354;BME280;50681;53.334;-6.536;2023-02-02T14:45:41;101808.03;;;9.48;100.00
64354;BME280;50681;53.334;-6.536;2023-02-02T14:48:21;101810.38;;;9.39;100.00
64354;BME280;50681;53.334;-6.536;2023-02-02T14:50:57;101806.81;;;9.55;100.00
64354;BME280;50681;53.334;-6.536;2023-02-02T14:53:32;101790.88;;;9.54;100.00
64354;BME280;50681;53.334;-6.536;2023-02-02T15:01:30;101746.16;;;9.58;100.00
64354;BME280;50681;53.334;-6.536;2023-02-02T15:04:24;101737.16;;;9.75;100.00
64354;BME280;50681;53.334;-6.536;2023-02-02T15:09:44;101720.22;;;9.79;100.00
64354;BME280;50681;53.334;-6.536;2023-02-02T15:12:15;101756.47;;;9.89;100.00
64354;BME280;50681;53.334;-6.536;2023-02-02T15:15:01;101768.88;;;9.90;100.00
64354;BME280;50681;53.334;-6.536;2023-02-02T15:20:28;101770.50;;;9.91;100.00
64354;BME280;50681;53.334;-6.536;2023-02-02T15:23:06;101788.44;;;10.02;100.00
64354;BME280;50681;53.334;-6.536;2023-02-02T15:29:29;101791.41;;;10.06;100.00
64354;BME280;50681;53.334;-6.536;2023-02-02T15:31:54;101782.72;;;9.98;100.00